Time;durP1;ratioP1;P1;durP2;ratioP2;P2;SDS_P1;SDS_P2;PMS_P1;PMS_P2;Temp;Humidity;BMP_temperature;BMP_pressure;BME280_temperature;BME280_humidity;BME280_pressure;Samples;Min_cycle;Max_cycle;Signal;HPM_P1;HPM_P2
2022/10/19 00:01:30;;;;;;;16.80;15.30;;;;;;;12.35;100.00;99690.27;106039;1287;58131;-75
2022/10/19 00:03:57;;;;;;;14.60;13.00;;;;;;;12.35;100.00;99697.05;106087;1288;58086;-74
2022/10/19 00:06:30;;;;;;;13.70;12.40;;;;;;;12.34;100.00;99697.42;106047;1288;65287;-75
2022/10/19 00:09:00;;;;;;;13.80;12.30;;;;;;;12.36;100.00;99696.44;105791;1290;61059;-74
2022/10/19 00:11:28;;;;;;;14.30;13.00;;;;;;;12.37;100.00;99697.05;106071;1287;65086;-74
2022/10/19 00:13:56;;;;;;;14.30;13.00;;;;;;;12.40;100.00;99699.06;105790;1294;58165;-74
2022/10/19 00:16:25;;;;;;;14.50;13.20;;;;;;;12.42;100.00;99698.73;106078;1286;58214;-74
2022/10/19 00:18:55;;;;;;;15.50;14.00;;;;;;;12.44;100.00;99696.27;106061;1287;65217;-75
2022/10/19 00:21:22;;;;;;;15.70;14.20;;;;;;;12.46;100.00;99695.59;105955;1287;59276;-75
2022/10/19 00:23:49;;;;;;;16.60;14.70;;;;;;;12.47;100.00;99694.83;105891;1296;64745;-76
2022/10/19 00:26:15;;;;;;;16.00;14.50;;;;;;;12.48;100.00;99695.14;106072;1288;58110;-75
2022/10/19 00:28:43;;;;;;;17.10;15.50;;;;;;;12.48;100.00;99698.88;105864;1294;58129;-76
2022/10/19 00:31:13;;;;;;;18.90;16.80;;;;;;;12.48;100.00;99694.98;106047;1287;66149;-75
2022/10/19 00:33:40;;;;;;;21.10;19.10;;;;;;;12.47;100.00;99690.52;106067;1288;60810;-75
2022/10/19 00:36:21;;;;;;;21.30;19.20;;;;;;;12.48;100.00;99689.77;106060;1288;64055;-75
2022/10/19 00:38:48;;;;;;;21.30;19.10;;;;;;;12.50;100.00;99690.40;106054;1289;58115;-76
2022/10/19 00:41:16;;;;;;;21.10;19.10;;;;;;;12.49;100.00;99690.77;106078;1288;58088;-75
2022/10/19 00:44:12;;;;;;;21.40;19.00;;;;;;;12.49;100.00;99691.70;106081;1288;65286;-76
2022/10/19 00:46:40;;;;;;;21.40;19.10;;;;;;;12.50;100.00;99691.44;105557;1292;59967;-75
2022/10/19 00:49:11;;;;;;;21.00;18.90;;;;;;;12.52;100.00;99687.05;105571;1295;62607;-75
2022/10/19 00:51:41;;;;;;;20.60;18.40;;;;;;;12.53;100.00;99682.52;105524;1297;58213;-76
2022/10/19 00:54:09;;;;;;;20.70;18.60;;;;;;;12.54;100.00;99684.05;105565;1298;58035;-75
2022/10/19 00:56:38;;;;;;;20.40;18.40;;;;;;;12.55;100.00;99677.75;105539;1297;66297;-76
2022/10/19 00:59:06;;;;;;;21.00;19.00;;;;;;;12.56;100.00;99676.09;105523;1297;58603;-76
2022/10/19 01:01:34;;;;;;;21.10;19.00;;;;;;;12.57;100.00;99675.53;105541;1292;65067;-76
2022/10/19 01:04:02;;;;;;;19.40;17.40;;;;;;;12.58;100.00;99677.23;105560;1295;58170;-76
2022/10/19 01:06:29;;;;;;;18.40;16.60;;;;;;;12.58;100.00;99676.68;105293;1300;58503;-76
2022/10/19 01:08:56;;;;;;;18.30;16.50;;;;;;;12.58;100.00;99670.27;105523;1295;66010;-76
2022/10/19 01:11:29;;;;;;;18.50;16.80;;;;;;;12.59;100.00;99670.05;105531;1295;60995;-75
2022/10/19 01:14:04;;;;;;;17.30;15.60;;;;;;;12.59;100.00;99667.73;105532;1295;64886;-76
2022/10/19 01:17:02;;;;;;;17.30;15.50;;;;;;;12.59;100.00;99666.50;105505;1292;58275;-75
2022/10/19 01:19:38;;;;;;;16.70;15.10;;;;;;;12.59;100.00;99663.11;105453;1296;58111;-76
2022/10/19 01:22:42;;;;;;;16.90;15.30;;;;;;;12.59;100.00;99661.83;105534;1292;65266;-76
2022/10/19 01:25:23;;;;;;;16.90;14.20;;;;;;;12.58;100.00;99659.56;106070;1286;58599;-75
2022/10/19 01:28:09;;;;;;;15.90;14.30;;;;;;;12.57;100.00;99658.20;106068;1288;65019;-76
2022/10/19 01:30:51;;;;;;;15.20;13.70;;;;;;;12.58;100.00;99653.71;106072;1286;58219;-76
2022/10/19 01:33:29;;;;;;;16.50;14.90;;;;;;;12.58;100.00;99652.98;105939;1292;58105;-75
2022/10/19 01:36:14;;;;;;;20.40;18.30;;;;;;;12.58;100.00;99651.19;106059;1288;65182;-76
2022/10/19 01:39:05;;;;;;;23.50;21.20;;;;;;;12.57;100.00;99647.17;105750;1289;59617;-75
2022/10/19 01:41:51;;;;;;;19.00;17.30;;;;;;;12.55;100.00;99646.02;106046;1287;64070;-76
2022/10/19 01:44:58;;;;;;;17.20;15.60;;;;;;;12.55;100.00;99645.90;106046;1286;58069;-76
2022/10/19 01:47:40;;;;;;;17.10;15.40;;;;;;;12.53;100.00;99642.42;105545;1300;58128;-75
2022/10/19 01:50:14;;;;;;;16.70;15.10;;;;;;;12.52;100.00;99639.61;105563;1299;63844;-75
2022/10/19 01:52:41;;;;;;;16.80;15.30;;;;;;;12.52;100.00;99638.95;105464;1299;60953;-75
2022/10/19 01:55:11;;;;;;;18.20;16.40;;;;;;;12.50;100.00;99640.98;105444;1295;63864;-76
2022/10/19 01:57:46;;;;;;;18.50;16.70;;;;;;;12.49;100.00;99636.63;105450;1298;58100;-75
2022/10/19 02:00:40;;;;;;;18.00;16.20;;;;;;;12.48;100.00;99634.20;105468;1298;59878;-75
2022/10/19 02:03:09;;;;;;;18.90;17.00;;;;;;;12.47;100.00;99636.23;105543;1297;66241;-75
2022/10/19 02:05:37;;;;;;;19.40;17.50;;;;;;;12.46;100.00;99641.60;105412;1295;60981;-76
2022/10/19 02:08:13;;;;;;;19.70;17.80;;;;;;;12.46;100.00;99641.77;105271;1295;63022;-75
2022/10/19 02:10:43;;;;;;;17.40;15.80;;;;;;;12.46;100.00;99641.23;105431;1296;58282;-75
2022/10/19 02:13:13;;;;;;;16.70;15.00;;;;;;;12.44;100.00;99638.16;105540;1292;58205;-76
2022/10/19 02:15:41;;;;;;;;;;;;;;;12.43;100.00;99642.86;105561;1300;66011;-76
2022/10/19 02:18:11;;;;;;;19.60;17.70;;;;;;;12.42;100.00;99638.85;105538;1296;61082;-76
2022/10/19 02:20:38;;;;;;;26.90;24.20;;;;;;;12.43;100.00;99637.38;105523;1297;65315;-75
2022/10/19 02:23:05;;;;;;;27.80;24.90;;;;;;;12.42;100.00;99637.57;105746;1280;58176;-75
2022/10/19 02:25:33;;;;;;;29.40;26.50;;;;;;;12.42;100.00;99636.36;106043;1287;58333;-76
2022/10/19 02:28:04;;;;;;;33.60;29.90;;;;;;;12.42;100.00;99634.40;105769;1290;63939;-75
2022/10/19 02:30:31;;;;;;;;;;;;;;;12.42;100.00;99635.45;106099;1294;60991;-75
2022/10/19 02:32:57;;;;;;;36.60;32.80;;;;;;;12.41;100.00;99633.58;105908;1297;63915;-75
2022/10/19 02:35:24;;;;;;;40.20;35.90;;;;;;;12.40;100.00;99632.20;105874;1291;58458;-75
2022/10/19 02:37:50;;;;;;;33.60;29.90;;;;;;;12.40;100.00;99628.11;105874;1301;58167;-75
2022/10/19 02:40:17;;;;;;;25.80;22.90;;;;;;;12.39;100.00;99623.73;105890;1296;66297;-75
2022/10/19 02:42:54;;;;;;;24.50;21.30;;;;;;;12.37;100.00;99621.33;105868;1297;61076;-76
2022/10/19 02:45:22;;;;;;;24.80;20.90;;;;;;;12.37;100.00;99622.05;105865;1292;64584;-75
2022/10/19 02:47:54;;;;;;;24.60;21.00;;;;;;;12.38;100.00;99619.55;105890;1290;58497;-75
2022/10/19 02:50:21;;;;;;;25.50;20.50;;;;;;;12.37;100.00;99617.62;105855;1292;58318;-75
2022/10/19 02:52:47;;;;;;;21.00;18.80;;;;;;;12.37;100.00;99617.45;105877;1290;66145;-75
2022/10/19 02:55:14;;;;;;;23.10;19.10;;;;;;;12.36;100.00;99620.75;105893;1291;58987;-75
2022/10/19 02:57:40;;;;;;;23.50;20.20;;;;;;;12.35;100.00;99618.29;105696;1297;64820;-74
2022/10/19 03:00:07;;;;;;;28.00;24.60;;;;;;;12.36;100.00;99622.16;105867;1290;58260;-76
2022/10/19 03:02:34;;;;;;;29.70;25.80;;;;;;;12.35;100.00;99627.72;105646;1300;58122;-75
2022/10/19 03:05:00;;;;;;;32.50;28.80;;;;;;;12.34;100.00;99628.11;106022;1287;67655;-75
2022/10/19 03:07:27;;;;;;;33.80;29.20;;;;;;;12.34;100.00;99624.77;105853;1289;59979;-75
2022/10/19 03:09:54;;;;;;;30.50;25.60;;;;;;;12.35;100.00;99618.29;106054;1286;70746;-76
2022/10/19 03:12:20;;;;;;;24.70;21.20;;;;;;;12.36;100.00;99617.16;105794;1292;58173;-76
2022/10/19 03:14:47;;;;;;;21.60;19.10;;;;;;;12.35;100.00;99620.22;106072;1294;58054;-75
2022/10/19 03:17:13;;;;;;;25.40;21.40;;;;;;;12.35;100.00;99620.08;106064;1287;58738;-76
2022/10/19 03:19:40;;;;;;;24.10;21.00;;;;;;;12.35;100.00;99623.80;106045;1294;58141;-75
2022/10/19 03:22:06;;;;;;;23.50;21.10;;;;;;;12.35;100.00;99625.59;105871;1292;58246;-75
2022/10/19 03:24:33;;;;;;;23.50;20.50;;;;;;;12.34;100.00;99628.14;105781;1297;58113;-75
2022/10/19 03:26:59;;;;;;;22.90;19.70;;;;;;;12.33;100.00;99626.24;106036;1288;58129;-75
2022/10/19 03:29:26;;;;;;;22.10;19.90;;;;;;;12.33;100.00;99623.79;106067;1289;73775;-75
2022/10/19 03:31:53;;;;;;;23.00;20.60;;;;;;;12.31;100.00;99623.70;106058;1289;61022;-76
2022/10/19 03:34:19;;;;;;;22.80;20.40;;;;;;;12.27;100.00;99623.59;106057;1281;65088;-75
2022/10/19 03:36:46;;;;;;;23.10;20.40;;;;;;;12.22;100.00;99620.33;106052;1288;58299;-75
2022/10/19 03:39:15;;;;;;;23.20;20.80;;;;;;;12.16;100.00;99616.98;105939;1291;58045;-76
2022/10/19 03:41:42;;;;;;;23.70;20.60;;;;;;;12.09;100.00;99615.84;106074;1288;66178;-75
2022/10/19 03:44:10;;;;;;;22.00;19.20;;;;;;;12.02;100.00;99614.67;106064;1280;59892;-75
2022/10/19 03:46:37;;;;;;;22.60;20.20;;;;;;;11.97;100.00;99616.05;106060;1287;64101;-75
2022/10/19 03:49:04;;;;;;;24.80;21.50;;;;;;;11.95;100.00;99615.10;105846;1291;58119;-75
2022/10/19 03:51:32;;;;;;;25.50;20.60;;;;;;;11.92;100.00;99614.02;106064;1287;58199;-76
2022/10/19 03:54:08;;;;;;;23.70;21.30;;;;;;;11.91;100.00;99615.39;106067;1288;65218;-75
2022/10/19 03:56:35;;;;;;;30.70;25.90;;;;;;;11.90;100.00;99615.25;105898;1290;59768;-76
2022/10/19 03:59:03;;;;;;;36.30;29.50;;;;;;;11.90;100.00;99612.04;106066;1288;65087;-75
2022/10/19 04:01:42;;;;;;;35.40;30.70;;;;;;;11.91;100.00;99613.79;106028;1294;58115;-76
2022/10/19 04:04:12;;;;;;;37.30;30.10;;;;;;;11.91;100.00;99610.73;106042;1288;58148;-76
2022/10/19 04:06:41;;;;;;;38.30;31.10;;;;;;;11.91;100.00;99612.02;106138;1284;73557;-76
2022/10/19 04:09:11;;;;;;;36.00;30.10;;;;;;;11.90;100.00;99615.80;106015;1291;60666;-74
2022/10/19 04:11:38;;;;;;;37.10;28.20;;;;;;;11.88;100.00;99612.88;105826;1289;64090;-75
2022/10/19 04:14:05;;;;;;;33.00;28.90;;;;;;;11.86;100.00;99609.79;106056;1289;58185;-75
2022/10/19 04:16:32;;;;;;;37.40;31.40;;;;;;;11.85;100.00;99611.44;106076;1281;58068;-75
2022/10/19 04:18:59;;;;;;;39.70;33.80;;;;;;;11.83;100.00;99612.75;105919;1292;74304;-75
2022/10/19 04:21:29;;;;;;;38.70;29.80;;;;;;;11.81;100.00;99614.85;106065;1291;60317;-74
2022/10/19 04:24:09;;;;;;;32.10;26.80;;;;;;;11.77;100.00;99617.10;105752;1284;62648;-75
2022/10/19 04:26:41;;;;;;;27.30;24.40;;;;;;;11.71;100.00;99616.73;105772;1286;58154;-75
2022/10/19 04:29:09;;;;;;;28.50;23.90;;;;;;;11.66;100.00;99617.25;105699;1300;59772;-75
2022/10/19 04:31:36;;;;;;;25.80;22.60;;;;;;;11.62;100.00;99619.23;105990;1289;66442;-75
2022/10/19 04:34:04;;;;;;;25.70;23.00;;;;;;;11.59;100.00;99617.99;105782;1285;60563;-75
2022/10/19 04:36:31;;;;;;;27.90;24.90;;;;;;;11.55;100.00;99614.17;106007;1288;65014;-74
2022/10/19 04:38:58;;;;;;;29.50;25.50;;;;;;;11.51;100.00;99614.42;105991;1287;58060;-74
2022/10/19 04:41:25;;;;;;;27.80;24.70;;;;;;;11.45;100.00;99611.40;106060;1289;58220;-75
2022/10/19 04:44:01;;;;;;;29.90;26.70;;;;;;;11.39;100.00;99607.45;105978;1289;65206;-75
2022/10/19 04:46:28;;;;;;;29.80;25.40;;;;;;;11.36;100.00;99608.36;105898;1291;61204;-74
2022/10/19 04:48:56;;;;;;;30.20;26.20;;;;;;;11.36;100.00;99606.64;105955;1291;63957;-75
2022/10/19 04:51:24;;;;;;;30.50;27.10;;;;;;;11.35;100.00;99606.26;105967;1297;58169;-76
2022/10/19 04:53:50;;;;;;;32.10;28.20;;;;;;;11.34;100.00;99603.50;105991;1288;58053;-76
2022/10/19 04:56:20;;;;;;;32.40;28.90;;;;;;;11.30;100.00;99603.41;105990;1289;66258;-76
2022/10/19 04:58:47;;;;;;;35.70;29.40;;;;;;;11.26;100.00;99606.32;105904;1297;59898;-76
2022/10/19 05:01:19;;;;;;;35.00;29.40;;;;;;;11.21;100.00;99606.63;105975;1281;73315;-76
2022/10/19 05:03:46;;;;;;;34.60;30.90;;;;;;;11.14;100.00;99608.25;105954;1296;58149;-75
2022/10/19 05:06:14;;;;;;;36.40;30.80;;;;;;;11.09;100.00;99612.14;105984;1289;58177;-75
2022/10/19 05:08:41;;;;;;;33.80;29.80;;;;;;;11.02;100.00;99610.05;106001;1287;66224;-76
2022/10/19 05:11:13;;;;;;;38.10;31.10;;;;;;;10.95;100.00;99610.99;105768;1289;60681;-76
2022/10/19 05:13:40;;;;;;;42.00;33.20;;;;;;;10.88;100.00;99609.25;105979;1291;64281;-75
2022/10/19 05:16:11;;;;;;;38.10;32.70;;;;;;;10.83;100.00;99611.38;105987;1289;58077;-75
2022/10/19 05:18:37;;;;;;;38.40;30.70;;;;;;;10.78;100.00;99616.23;106000;1286;58119;-74
2022/10/19 05:21:09;;;;;;;35.80;30.50;;;;;;;10.73;100.00;99617.91;105977;1289;66239;-74
2022/10/19 05:23:36;;;;;;;36.70;30.70;;;;;;;10.69;100.00;99618.71;105996;1291;61016;-75
2022/10/19 05:26:08;;;;;;;36.60;30.30;;;;;;;10.64;100.00;99616.17;105996;1281;64018;-75
2022/10/19 05:28:35;;;;;;;39.20;32.90;;;;;;;10.60;100.00;99616.73;106037;1282;59280;-75
2022/10/19 05:31:11;;;;;;;35.80;31.80;;;;;;;10.57;100.00;99615.83;106058;1288;58091;-75
2022/10/19 05:33:38;;;;;;;41.80;35.50;;;;;;;10.54;100.00;99614.57;106076;1284;65932;-75
2022/10/19 05:36:12;;;;;;;43.20;36.50;;;;;;;10.52;100.00;99612.75;106055;1288;61113;-75
2022/10/19 05:38:39;;;;;;;46.40;34.80;;;;;;;10.50;100.00;99615.89;106036;1290;64747;-75
2022/10/19 05:41:05;;;;;;;41.80;34.30;;;;;;;10.48;100.00;99615.80;106054;1281;57981;-75
2022/10/19 05:43:32;;;;;;;42.30;35.90;;;;;;;10.48;100.00;99619.52;106043;1288;59411;-75
2022/10/19 05:46:03;;;;;;;46.40;36.80;;;;;;;10.49;100.00;99619.30;106053;1288;66186;-75
2022/10/19 05:48:32;;;;;;;44.30;37.10;;;;;;;10.50;100.00;99620.69;106069;1280;61131;-75
2022/10/19 05:51:04;;;;;;;41.10;34.60;;;;;;;10.52;100.00;99622.19;106062;1288;64039;-75
2022/10/19 05:53:31;;;;;;;41.40;32.80;;;;;;;10.53;100.00;99622.83;106054;1288;58253;-75
2022/10/19 05:55:57;;;;;;;36.40;32.50;;;;;;;10.54;100.00;99621.70;106073;1288;58055;-76
2022/10/19 05:58:24;;;;;;;40.90;32.60;;;;;;;10.56;100.00;99616.79;106058;1288;66326;-74
2022/10/19 06:00:55;;;;;;;36.10;31.40;;;;;;;10.59;100.00;99616.77;106049;1287;60858;-75
2022/10/19 06:03:23;;;;;;;40.30;33.70;;;;;;;10.63;100.00;99619.25;105828;1291;65106;-75
2022/10/19 06:05:51;;;;;;;42.10;35.00;;;;;;;10.67;100.00;99626.66;106057;1288;58683;-74
2022/10/19 06:08:19;;;;;;;43.10;38.40;;;;;;;10.71;100.00;99628.73;106076;1287;58083;-76
2022/10/19 06:10:46;;;;;;;57.10;42.80;;;;;;;10.76;100.00;99629.33;106052;1287;71996;-76
2022/10/19 06:13:14;;;;;;;54.10;44.20;;;;;;;10.81;100.00;99633.84;105768;1288;58883;-76
2022/10/19 06:15:41;;;;;;;54.70;46.30;;;;;;;10.89;100.00;99635.55;106038;1288;64044;-76
2022/10/19 06:18:09;;;;;;;52.50;43.50;;;;;;;10.99;100.00;99633.71;106042;1288;58205;-76
2022/10/19 06:20:39;;;;;;;49.80;40.70;;;;;;;11.13;100.00;99633.77;106061;1291;58356;-74
2022/10/19 06:23:07;;;;;;;50.50;39.20;;;;;;;11.31;100.00;99631.25;106070;1288;65137;-75
2022/10/19 06:25:35;;;;;;;37.20;33.20;;;;;;;11.49;100.00;99634.09;106039;1288;61030;-75
2022/10/19 06:28:02;;;;;;;38.10;32.90;;;;;;;11.59;100.00;99634.04;106054;1288;62594;-75
2022/10/19 06:30:30;;;;;;;36.60;31.20;;;;;;;11.63;100.00;99628.05;106068;1280;58467;-75
2022/10/19 06:32:57;;;;;;;33.80;29.80;;;;;;;11.74;100.00;99631.17;106053;1282;58134;-75
2022/10/19 06:35:24;;;;;;;30.40;27.10;;;;;;;11.85;100.00;99635.29;106029;1286;66244;-75
2022/10/19 06:37:50;;;;;;;27.90;25.00;;;;;;;11.97;100.00;99630.49;106070;1280;60976;-75
2022/10/19 06:40:17;;;;;;;30.70;25.70;;;;;;;12.06;100.00;99625.83;105935;1288;154998;-75
2022/10/19 06:42:44;;;;;;;29.60;26.60;;;;;;;12.15;100.00;99628.66;106040;1294;58996;-75
2022/10/19 06:45:10;;;;;;;37.10;33.20;;;;;;;12.23;100.00;99631.53;106068;1286;58176;-75
2022/10/19 06:47:37;;;;;;;34.90;30.30;;;;;;;12.27;100.00;99637.14;105830;1291;58583;-75
2022/10/19 06:50:05;;;;;;;34.40;30.70;;;;;;;12.29;100.00;99645.01;106065;1288;58346;-75
2022/10/19 06:52:33;;;;;;;33.00;29.50;;;;;;;12.28;100.00;99650.44;106047;1288;65034;-75
2022/10/19 06:55:01;;;;;;;30.20;26.90;;;;;;;12.21;100.00;99656.56;105597;1288;58138;-75
2022/10/19 06:57:27;;;;;;;30.90;27.60;;;;;;;12.18;100.00;99660.88;106043;1288;58025;-75
2022/10/19 06:59:54;;;;;;;27.80;24.80;;;;;;;12.18;100.00;99662.85;106059;1288;65232;-75
2022/10/19 07:02:21;;;;;;;26.20;23.50;;;;;;;12.19;100.00;99663.48;106074;1288;61048;-75
2022/10/19 07:04:47;;;;;;;25.10;22.40;;;;;;;12.17;100.00;99662.55;105800;1284;58168;-74
2022/10/19 07:07:14;;;;;;;30.10;26.10;;;;;;;12.13;100.00;99664.05;106036;1280;58085;-76
2022/10/19 07:09:40;;;;;;;34.50;28.00;;;;;;;12.13;100.00;99664.39;106062;1288;58012;-75
2022/10/19 07:12:09;;;;;;;31.70;28.40;;;;;;;12.08;100.00;99669.66;106064;1288;58095;-75
2022/10/19 07:14:38;;;;;;;33.30;28.10;;;;;;;12.02;100.00;99676.31;106052;1288;61289;-76
2022/10/19 07:17:06;;;;;;;34.80;30.00;;;;;;;11.95;100.00;99676.91;105890;1291;64872;-76
2022/10/19 07:19:33;;;;;;;33.00;26.90;;;;;;;11.94;100.00;99685.30;106062;1282;58375;-75
2022/10/19 07:22:00;;;;;;;35.00;26.90;;;;;;;12.01;100.00;99687.73;106076;1281;58513;-75
2022/10/19 07:24:27;;;;;;;26.50;23.30;;;;;;;12.15;100.00;99688.52;106059;1286;66205;-75
2022/10/19 07:26:53;;;;;;;27.00;22.60;;;;;;;12.29;100.00;99692.60;106071;1280;58575;-74
2022/10/19 07:29:20;;;;;;;22.90;20.60;;;;;;;12.43;100.00;99692.95;106044;1288;65306;-75
2022/10/19 07:31:47;;;;;;;22.90;20.00;;;;;;;12.51;100.00;99694.04;106045;1280;58125;-74
2022/10/19 07:34:15;;;;;;;24.40;20.00;;;;;;;12.50;100.00;99693.04;106080;1288;58102;-74
2022/10/19 07:36:44;;;;;;;20.70;18.60;;;;;;;12.47;100.00;99694.13;106066;1288;65181;-74
2022/10/19 07:39:12;;;;;;;20.80;17.50;;;;;;;12.45;100.00;99689.78;106061;1288;60185;-74
2022/10/19 07:41:38;;;;;;;20.80;18.40;;;;;;;12.38;100.00;99690.25;106036;1280;65221;-75
2022/10/19 07:44:05;;;;;;;21.20;18.80;;;;;;;12.35;100.00;99690.98;106025;1287;58107;-74
2022/10/19 07:46:32;;;;;;;20.50;18.40;;;;;;;12.36;100.00;99687.89;106085;1288;58081;-74
2022/10/19 07:48:59;;;;;;;26.10;20.70;;;;;;;12.37;100.00;99687.45;106059;1288;65134;-75
2022/10/19 07:51:26;;;;;;;21.70;19.50;;;;;;;12.42;100.00;99687.70;106074;1287;58312;-75
2022/10/19 07:53:52;;;;;;;20.70;18.40;;;;;;;12.53;100.00;99685.40;106076;1282;64099;-75
2022/10/19 07:56:21;;;;;;;21.40;19.20;;;;;;;12.69;100.00;99682.76;105786;1285;58120;-75
2022/10/19 07:58:50;;;;;;;21.50;19.30;;;;;;;12.83;100.00;99679.31;106041;1288;58070;-75
2022/10/19 08:01:19;;;;;;;20.50;18.30;;;;;;;12.92;100.00;99676.77;106046;1281;66289;-75
2022/10/19 08:03:47;;;;;;;18.60;16.70;;;;;;;12.96;100.00;99678.66;106078;1288;61244;-75
2022/10/19 08:06:16;;;;;;;19.00;17.00;;;;;;;13.01;100.00;99683.50;106062;1288;63778;-75
2022/10/19 08:08:43;;;;;;;19.30;17.40;;;;;;;13.06;100.00;99685.14;106059;1294;58127;-75
2022/10/19 08:11:13;;;;;;;19.80;15.80;;;;;;;13.17;100.00;99682.08;106061;1288;58044;-75
2022/10/19 08:13:40;;;;;;;17.10;15.20;;;;;;;13.38;100.00;99681.42;106056;1288;65236;-75
2022/10/19 08:16:21;;;;;;;20.60;16.70;;;;;;;13.55;100.00;99683.15;106073;1288;60962;-76
2022/10/19 08:18:48;;;;;;;21.40;17.60;;;;;;;13.66;100.00;99683.08;106065;1288;64980;-75
2022/10/19 08:21:15;;;;;;;18.50;16.70;;;;;;;13.69;100.00;99684.52;106052;1288;58103;-75
2022/10/19 08:23:41;;;;;;;18.20;16.00;;;;;;;13.73;100.00;99678.30;106084;1288;58063;-75
2022/10/19 08:26:08;;;;;;;17.10;15.30;;;;;;;13.73;100.00;99675.45;106057;1288;66261;-75
2022/10/19 08:28:35;;;;;;;16.30;13.40;;;;;;;13.71;100.00;99674.22;105782;1290;59802;-75
2022/10/19 08:31:11;;;;;;;14.80;13.30;;;;;;;13.66;100.00;99674.21;106048;1280;58054;-75
2022/10/19 08:33:38;;;;;;;15.40;13.30;;;;;;;13.53;100.00;99674.02;105931;1283;58187;-75
2022/10/19 08:36:06;;;;;;;14.60;12.60;;;;;;;13.38;100.00;99672.36;106063;1288;58212;-75
2022/10/19 08:38:34;;;;;;;14.70;12.50;;;;;;;13.22;100.00;99677.66;106079;1280;73447;-75
2022/10/19 08:41:20;;;;;;;16.40;12.10;;;;;;;13.02;100.00;99680.80;106051;1288;60077;-75
2022/10/19 08:44:08;;;;;;;13.70;12.20;;;;;;;12.81;100.00;99683.58;106033;1288;64887;-75
2022/10/19 08:46:50;;;;;;;14.50;10.60;;;;;;;12.60;100.00;99682.42;106047;1288;58140;-74
2022/10/19 08:49:19;;;;;;;12.30;11.00;;;;;;;12.40;100.00;99683.55;106069;1288;58133;-74
2022/10/19 08:51:52;;;;;;;14.30;11.80;;;;;;;12.26;100.00;99694.00;106074;1284;65173;-74
2022/10/19 08:54:19;;;;;;;19.50;12.60;;;;;;;12.22;100.00;99699.47;106081;1287;60994;-75
2022/10/19 08:57:04;;;;;;;15.90;11.10;;;;;;;12.22;100.00;99701.08;106046;1284;64926;-75
2022/10/19 08:59:39;;;;;;;16.60;10.90;;;;;;;12.30;100.00;99698.80;105837;1284;58153;-75
2022/10/19 09:02:27;;;;;;;10.60;9.20;;;;;;;12.36;100.00;99694.45;106041;1280;58150;-75
2022/10/19 09:05:02;;;;;;;11.20;9.50;;;;;;;12.42;100.00;99695.51;106058;1287;66191;-75
2022/10/19 09:07:33;;;;;;;11.50;8.00;;;;;;;12.55;100.00;99697.70;106063;1288;61241;-74
2022/10/19 09:10:09;;;;;;;10.70;7.80;;;;;;;12.74;100.00;99693.15;106070;1280;65036;-75
2022/10/19 09:12:54;;;;;;;9.20;7.10;;;;;;;12.93;100.00;99687.23;106040;1287;58077;-75
2022/10/19 09:15:26;;;;;;;7.60;5.60;;;;;;;13.11;100.00;99688.89;106064;1281;58065;-75
2022/10/19 09:17:53;;;;;;;9.60;4.30;;;;;;;13.23;100.00;99689.73;106063;1288;66327;-75
2022/10/19 09:20:24;;;;;;;7.50;4.40;;;;;;;13.29;100.00;99692.35;106083;1281;61213;-75
2022/10/19 09:23:35;;;;;;;13.20;4.90;;;;;;;13.36;100.00;99694.98;106065;1280;65368;-75
2022/10/19 09:26:09;;;;;;;7.20;3.40;;;;;;;13.51;100.00;99695.56;105737;1289;58169;-75
2022/10/19 09:28:52;;;;;;;6.70;3.20;;;;;;;13.78;100.00;99693.33;106007;1283;57988;-75
2022/10/19 09:31:31;;;;;;;6.40;2.70;;;;;;;14.01;100.00;99693.70;105970;1284;66265;-75
2022/10/19 09:34:15;;;;;;;6.30;2.90;;;;;;;14.06;100.00;99693.93;105998;1281;60814;-76
2022/10/19 09:36:48;;;;;;;7.40;2.60;;;;;;;13.91;100.00;99693.73;105983;1283;64085;-75
2022/10/19 09:39:15;;;;;;;4.30;2.30;;;;;;;13.70;100.00;99693.02;105970;1290;58445;-76
2022/10/19 09:42:24;;;;;;;3.80;2.60;;;;;;;13.53;100.00;99691.14;106017;1289;58050;-76
2022/10/19 09:44:53;;;;;;;6.90;2.80;;;;;;;13.30;100.00;99691.77;106011;1286;66235;-75
2022/10/19 09:47:35;;;;;;;7.80;3.00;;;;;;;13.11;100.00;99697.98;105983;1289;60065;-75
2022/10/19 09:50:14;;;;;;;6.20;2.60;;;;;;;12.96;100.00;99702.22;105970;1291;64064;-75
2022/10/19 09:52:42;;;;;;;6.70;2.90;;;;;;;12.85;100.00;99709.35;105992;1288;58153;-75
2022/10/19 09:55:26;;;;;;;8.50;2.40;;;;;;;12.86;100.00;99713.73;105992;1291;58043;-74
2022/10/19 09:58:16;;;;;;;5.60;3.20;;;;;;;12.95;100.00;99712.93;105999;1289;65938;-74
2022/10/19 10:00:44;;;;;;;10.10;4.90;;;;;;;13.12;100.00;99711.70;105994;1290;60781;-74
2022/10/19 10:03:38;;;;;;;6.90;3.20;;;;;;;13.28;100.00;99708.14;105976;1283;64013;-74
2022/10/19 10:06:12;;;;;;;6.40;2.70;;;;;;;13.44;100.00;99707.46;105991;1283;57987;-74
2022/10/19 10:08:46;;;;;;;4.10;1.80;;;;;;;13.54;100.00;99712.52;105910;1291;58417;-74
2022/10/19 10:11:21;;;;;;;6.30;1.90;;;;;;;13.53;100.00;99708.96;106005;1283;65188;-74
2022/10/19 10:13:51;;;;;;;4.40;2.30;;;;;;;13.50;100.00;99715.98;105997;1289;59779;-74
2022/10/19 10:16:20;;;;;;;3.50;2.20;;;;;;;13.42;100.00;99715.42;105967;1289;63998;-73
2022/10/19 10:18:54;;;;;;;7.40;2.30;;;;;;;13.36;100.00;99714.57;105969;1281;58149;-74
2022/10/19 10:21:33;;;;;;;3.10;1.90;;;;;;;13.40;100.00;99712.02;105996;1282;58876;-74
2022/10/19 10:24:04;;;;;;;4.70;1.70;;;;;;;13.50;100.00;99701.85;105990;1289;66193;-75
2022/10/19 10:26:41;;;;;;;3.60;1.70;;;;;;;13.53;100.00;99702.00;106023;1287;59962;-76
2022/10/19 10:29:21;;;;;;;5.00;2.30;;;;;;;13.50;100.00;99706.17;106067;1280;65381;-75
2022/10/19 10:32:18;;;;;;;2.40;1.90;;;;;;;13.45;100.00;99709.56;106057;1288;58133;-75
2022/10/19 10:35:01;;;;;;;3.80;1.00;;;;;;;13.36;100.00;99710.33;106093;1294;58257;-73
2022/10/19 10:37:42;;;;;;;1.90;1.00;;;;;;;13.24;100.00;99710.05;105815;1286;66336;-74
2022/10/19 10:40:25;;;;;;;4.20;1.30;;;;;;;13.16;100.00;99712.13;106068;1288;59900;-74
2022/10/19 10:42:55;;;;;;;2.40;1.10;;;;;;;13.06;100.00;99711.70;106070;1288;64661;-75
2022/10/19 10:45:28;;;;;;;1.80;1.50;;;;;;;13.01;100.00;99714.02;106049;1288;58231;-75
2022/10/19 10:47:56;;;;;;;4.90;1.30;;;;;;;12.97;100.00;99711.77;106074;1280;58210;-75
2022/10/19 10:50:29;;;;;;;3.20;1.30;;;;;;;13.00;100.00;99715.55;106055;1288;63886;-75
2022/10/19 10:53:05;;;;;;;2.30;0.90;;;;;;;13.04;100.00;99711.86;106080;1288;59960;-75
2022/10/19 10:55:32;;;;;;;2.30;0.90;;;;;;;13.09;100.00;99705.98;106070;1281;64091;-75
2022/10/19 10:58:17;;;;;;;2.80;1.10;;;;;;;13.13;100.00;99700.22;105574;1295;58130;-75
2022/10/19 11:00:45;;;;;;;2.00;1.00;;;;;;;13.17;100.00;99702.58;106081;1288;57996;-75
2022/10/19 11:03:25;;;;;;;4.40;2.40;;;;;;;13.22;100.00;99701.75;106085;1288;65257;-75
2022/10/19 11:05:57;;;;;;;4.80;1.30;;;;;;;13.24;100.00;99703.25;105950;1291;59988;-75
2022/10/19 11:08:27;;;;;;;6.10;1.40;;;;;;;13.21;100.00;99708.09;105781;1292;62710;-75
2022/10/19 11:11:00;;;;;;;2.10;1.20;;;;;;;13.17;100.00;99709.02;106063;1287;58253;-74
2022/10/19 11:13:37;;;;;;;4.70;1.50;;;;;;;13.16;100.00;99708.02;106100;1288;58486;-74
2022/10/19 11:16:16;;;;;;;2.80;1.00;;;;;;;13.15;100.00;99710.05;106072;1272;66437;-74
2022/10/19 11:18:48;;;;;;;2.00;1.00;;;;;;;13.15;100.00;99708.05;106099;1288;60869;-74
2022/10/19 11:21:24;;;;;;;2.10;1.50;;;;;;;13.18;100.00;99701.62;106093;1282;62662;-74
2022/10/19 11:24:09;;;;;;;3.30;1.30;;;;;;;13.21;100.00;99697.55;106052;1288;58687;-75